sensor_id;sensor_type;location;lat;lon;timestamp;P1;durP1;ratioP1;P2;durP2;ratioP2
53939;SDS011;39850;43.324;21.916;2024-01-27T00:03:08;57.0;;;42.0;;
53939;SDS011;39850;43.324;21.916;2024-01-27T00:07:44;57.0;;;42.0;;
53939;SDS011;39850;43.324;21.916;2024-01-27T00:12:20;57.0;;;42.0;;
53939;SDS011;39850;43.324;21.916;2024-01-27T00:16:56;56.0;;;42.0;;
53939;SDS011;39850;43.324;21.916;2024-01-27T00:21:32;56.0;;;42.0;;
53939;SDS011;39850;43.324;21.916;2024-01-27T00:26:09;57.0;;;42.0;;
53939;SDS011;39850;43.324;21.916;2024-01-27T00:30:45;57.0;;;42.0;;
53939;SDS011;39850;43.324;21.916;2024-01-27T01:07:33;29.0;;;23.0;;
53939;SDS011;39850;43.324;21.916;2024-01-27T01:12:09;29.0;;;23.0;;
53939;SDS011;39850;43.324;21.916;2024-01-27T01:16:46;31.0;;;25.0;;
53939;SDS011;39850;43.324;21.916;2024-01-27T01:21:22;31.0;;;25.0;;
53939;SDS011;39850;43.324;21.916;2024-01-27T01:25:59;33.0;;;27.0;;
53939;SDS011;39850;43.324;21.916;2024-01-27T01:30:36;33.0;;;27.0;;
53939;SDS011;39850;43.324;21.916;2024-01-27T01:35:15;36.0;;;28.0;;
53939;SDS011;39850;43.324;21.916;2024-01-27T01:39:52;36.0;;;28.0;;
53939;SDS011;39850;43.324;21.916;2024-01-27T01:44:31;38.0;;;29.0;;
53939;SDS011;39850;43.324;21.916;2024-01-27T01:49:07;38.0;;;29.0;;
53939;SDS011;39850;43.324;21.916;2024-01-27T01:53:49;38.0;;;29.0;;
53939;SDS011;39850;43.324;21.916;2024-01-27T02:26:11;56.0;;;42.0;;
53939;SDS011;39850;43.324;21.916;2024-01-27T02:30:48;56.0;;;42.0;;
53939;SDS011;39850;43.324;21.916;2024-01-27T02:35:25;57.0;;;42.0;;
53939;SDS011;39850;43.324;21.916;2024-01-27T02:40:02;57.0;;;42.0;;
53939;SDS011;39850;43.324;21.916;2024-01-27T02:44:40;58.0;;;43.0;;
53939;SDS011;39850;43.324;21.916;2024-01-27T02:49:17;58.0;;;43.0;;
53939;SDS011;39850;43.324;21.916;2024-01-27T02:53:53;58.0;;;43.0;;
53939;SDS011;39850;43.324;21.916;2024-01-27T02:58:29;60.0;;;44.0;;
53939;SDS011;39850;43.324;21.916;2024-01-27T03:03:05;60.0;;;44.0;;
53939;SDS011;39850;43.324;21.916;2024-01-27T03:07:41;61.0;;;45.0;;
53939;SDS011;39850;43.324;21.916;2024-01-27T03:12:18;61.0;;;45.0;;
53939;SDS011;39850;43.324;21.916;2024-01-27T03:49:06;43.0;;;34.0;;
53939;SDS011;39850;43.324;21.916;2024-01-27T03:53:42;43.0;;;34.0;;
53939;SDS011;39850;43.324;21.916;2024-01-27T03:58:18;43.0;;;34.0;;
53939;SDS011;39850;43.324;21.916;2024-01-27T04:02:55;43.0;;;34.0;;
53939;SDS011;39850;43.324;21.916;2024-01-27T04:07:31;43.0;;;34.0;;
53939;SDS011;39850;43.324;21.916;2024-01-27T04:12:08;43.0;;;34.0;;
53939;SDS011;39850;43.324;21.916;2024-01-27T04:16:44;42.0;;;34.0;;
53939;SDS011;39850;43.324;21.916;2024-01-27T04:21:21;42.0;;;34.0;;
53939;SDS011;39850;43.324;21.916;2024-01-27T04:25:57;41.0;;;33.0;;
53939;SDS011;39850;43.324;21.916;2024-01-27T04:30:33;41.0;;;33.0;;
53939;SDS011;39850;43.324;21.916;2024-01-27T05:07:22;47.0;;;38.0;;
53939;SDS011;39850;43.324;21.916;2024-01-27T05:12:00;47.0;;;38.0;;
53939;SDS011;39850;43.324;21.916;2024-01-27T05:16:36;52.0;;;42.0;;
53939;SDS011;39850;43.324;21.916;2024-01-27T05:21:13;52.0;;;42.0;;
53939;SDS011;39850;43.324;21.916;2024-01-27T05:25:49;53.0;;;42.0;;
53939;SDS011;39850;43.324;21.916;2024-01-27T05:30:25;53.0;;;42.0;;
53939;SDS011;39850;43.324;21.916;2024-01-27T05:35:01;55.0;;;44.0;;
53939;SDS011;39850;43.324;21.916;2024-01-27T05:39:39;55.0;;;44.0;;
53939;SDS011;39850;43.324;21.916;2024-01-27T05:44:15;55.0;;;44.0;;
53939;SDS011;39850;43.324;21.916;2024-01-27T05:48:52;53.0;;;42.0;;
53939;SDS011;39850;43.324;21.916;2024-01-27T05:53:28;53.0;;;42.0;;
53939;SDS011;39850;43.324;21.916;2024-01-27T06:25:43;48.0;;;40.0;;
53939;SDS011;39850;43.324;21.916;2024-01-27T06:30:20;48.0;;;40.0;;
53939;SDS011;39850;43.324;21.916;2024-01-27T06:34:56;48.0;;;40.0;;
53939;SDS011;39850;43.324;21.916;2024-01-27T06:39:33;44.0;;;37.0;;
53939;SDS011;39850;43.324;21.916;2024-01-27T06:44:09;44.0;;;37.0;;
53939;SDS011;39850;43.324;21.916;2024-01-27T06:48:45;40.0;;;34.0;;
53939;SDS011;39850;43.324;21.916;2024-01-27T06:53:22;40.0;;;34.0;;
53939;SDS011;39850;43.324;21.916;2024-01-27T06:57:58;38.0;;;32.0;;
53939;SDS011;39850;43.324;21.916;2024-01-27T07:02:34;38.0;;;32.0;;
53939;SDS011;39850;43.324;21.916;2024-01-27T07:07:11;35.0;;;29.0;;
53939;SDS011;39850;43.324;21.916;2024-01-27T07:11:47;35.0;;;29.0;;
53939;SDS011;39850;43.324;21.916;2024-01-27T07:48:45;30.0;;;25.0;;
53939;SDS011;39850;43.324;21.916;2024-01-27T07:53:21;30.0;;;25.0;;
53939;SDS011;39850;43.324;21.916;2024-01-27T07:57:57;24.0;;;20.0;;
53939;SDS011;39850;43.324;21.916;2024-01-27T08:02:33;24.0;;;20.0;;
53939;SDS011;39850;43.324;21.916;2024-01-27T08:07:10;18.0;;;15.0;;
53939;SDS011;39850;43.324;21.916;2024-01-27T08:11:46;18.0;;;15.0;;
53939;SDS011;39850;43.324;21.916;2024-01-27T08:16:23;14.0;;;12.0;;
53939;SDS011;39850;43.324;21.916;2024-01-27T08:20:59;14.0;;;12.0;;
53939;SDS011;39850;43.324;21.916;2024-01-27T08:25:35;11.0;;;9.0;;
53939;SDS011;39850;43.324;21.916;2024-01-27T08:30:14;11.0;;;9.0;;
53939;SDS011;39850;43.324;21.916;2024-01-27T08:34:50;11.0;;;9.0;;
53939;SDS011;39850;43.324;21.916;2024-01-27T09:07:05;9.0;;;7.0;;
53939;SDS011;39850;43.324;21.916;2024-01-27T09:11:42;9.0;;;7.0;;
53939;SDS011;39850;43.324;21.916;2024-01-27T09:16:19;9.0;;;7.0;;
53939;SDS011;39850;43.324;21.916;2024-01-27T09:20:55;9.0;;;7.0;;
53939;SDS011;39850;43.324;21.916;2024-01-27T09:25:31;9.0;;;7.0;;
53939;SDS011;39850;43.324;21.916;2024-01-27T09:30:10;9.0;;;7.0;;
53939;SDS011;39850;43.324;21.916;2024-01-27T09:34:47;9.0;;;7.0;;
53939;SDS011;39850;43.324;21.916;2024-01-27T09:39:23;9.0;;;7.0;;
53939;SDS011;39850;43.324;21.916;2024-01-27T09:44:04;9.0;;;7.0;;
53939;SDS011;39850;43.324;21.916;2024-01-27T09:48:42;9.0;;;7.0;;
53939;SDS011;39850;43.324;21.916;2024-01-27T09:53:20;9.0;;;7.0;;
53939;SDS011;39850;43.324;21.916;2024-01-27T10:30:28;9.0;;;7.0;;
53939;SDS011;39850;43.324;21.916;2024-01-27T10:35:08;9.0;;;7.0;;
53939;SDS011;39850;43.324;21.916;2024-01-27T10:39:44;10.0;;;7.0;;
53939;SDS011;39850;43.324;21.916;2024-01-27T10:44:20;10.0;;;7.0;;
53939;SDS011;39850;43.324;21.916;2024-01-27T10:49:01;10.0;;;7.0;;
53939;SDS011;39850;43.324;21.916;2024-01-27T10:53:46;10.0;;;7.0;;
53939;SDS011;39850;43.324;21.916;2024-01-27T10:58:26;10.0;;;8.0;;
53939;SDS011;39850;43.324;21.916;2024-01-27T11:03:10;10.0;;;8.0;;
53939;SDS011;39850;43.324;21.916;2024-01-27T11:07:47;10.0;;;8.0;;
53939;SDS011;39850;43.324;21.916;2024-01-27T11:12:26;10.0;;;8.0;;
53939;SDS011;39850;43.324;21.916;2024-01-27T11:49:33;9.0;;;7.0;;
53939;SDS011;39850;43.324;21.916;2024-01-27T11:54:11;9.0;;;7.0;;
53939;SDS011;39850;43.324;21.916;2024-01-27T11:58:49;9.0;;;7.0;;
53939;SDS011;39850;43.324;21.916;2024-01-27T12:03:26;9.0;;;7.0;;
53939;SDS011;39850;43.324;21.916;2024-01-27T12:08:03;9.0;;;7.0;;
53939;SDS011;39850;43.324;21.916;2024-01-27T12:12:43;9.0;;;7.0;;
53939;SDS011;39850;43.324;21.916;2024-01-27T12:17:24;9.0;;;7.0;;
53939;SDS011;39850;43.324;21.916;2024-01-27T12:22:01;9.0;;;7.0;;
53939;SDS011;39850;43.324;21.916;2024-01-27T12:26:37;9.0;;;7.0;;
53939;SDS011;39850;43.324;21.916;2024-01-27T12:31:17;9.0;;;7.0;;
53939;SDS011;39850;43.324;21.916;2024-01-27T12:35:54;9.0;;;7.0;;
53939;SDS011;39850;43.324;21.916;2024-01-27T13:26:36;10.0;;;7.0;;
53939;SDS011;39850;43.324;21.916;2024-01-27T13:31:12;10.0;;;7.0;;
53939;SDS011;39850;43.324;21.916;2024-01-27T13:35:49;10.0;;;7.0;;
53939;SDS011;39850;43.324;21.916;2024-01-27T13:40:25;10.0;;;7.0;;
53939;SDS011;39850;43.324;21.916;2024-01-27T13:45:01;10.0;;;7.0;;
53939;SDS011;39850;43.324;21.916;2024-01-27T13:49:39;10.0;;;7.0;;
53939;SDS011;39850;43.324;21.916;2024-01-27T13:54:15;10.0;;;7.0;;
53939;SDS011;39850;43.324;21.916;2024-01-27T14:31:07;11.0;;;8.0;;
53939;SDS011;39850;43.324;21.916;2024-01-27T14:35:44;11.0;;;8.0;;
53939;SDS011;39850;43.324;21.916;2024-01-27T14:40:20;11.0;;;8.0;;
53939;SDS011;39850;43.324;21.916;2024-01-27T14:44:56;11.0;;;8.0;;
53939;SDS011;39850;43.324;21.916;2024-01-27T14:49:33;11.0;;;8.0;;
53939;SDS011;39850;43.324;21.916;2024-01-27T14:54:09;11.0;;;8.0;;
53939;SDS011;39850;43.324;21.916;2024-01-27T15:49:27;13.0;;;10.0;;
53939;SDS011;39850;43.324;21.916;2024-01-27T15:54:04;13.0;;;10.0;;
53939;SDS011;39850;43.324;21.916;2024-01-27T15:58:40;14.0;;;10.0;;
53939;SDS011;39850;43.324;21.916;2024-01-27T16:03:16;14.0;;;10.0;;
53939;SDS011;39850;43.324;21.916;2024-01-27T16:07:52;15.0;;;11.0;;
53939;SDS011;39850;43.324;21.916;2024-01-27T16:12:29;15.0;;;11.0;;
53939;SDS011;39850;43.324;21.916;2024-01-27T16:17:06;16.0;;;12.0;;
53939;SDS011;39850;43.324;21.916;2024-01-27T16:21:42;16.0;;;12.0;;
53939;SDS011;39850;43.324;21.916;2024-01-27T16:26:18;16.0;;;12.0;;
53939;SDS011;39850;43.324;21.916;2024-01-27T16:30:54;16.0;;;13.0;;
53939;SDS011;39850;43.324;21.916;2024-01-27T16:35:30;16.0;;;13.0;;
53939;SDS011;39850;43.324;21.916;2024-01-27T17:07:44;17.0;;;13.0;;
53939;SDS011;39850;43.324;21.916;2024-01-27T17:12:20;17.0;;;13.0;;
53939;SDS011;39850;43.324;21.916;2024-01-27T17:16:56;17.0;;;13.0;;
53939;SDS011;39850;43.324;21.916;2024-01-27T17:21:32;18.0;;;14.0;;
53939;SDS011;39850;43.324;21.916;2024-01-27T17:26:08;18.0;;;14.0;;
53939;SDS011;39850;43.324;21.916;2024-01-27T17:30:45;17.0;;;13.0;;
53939;SDS011;39850;43.324;21.916;2024-01-27T17:35:21;17.0;;;13.0;;
53939;SDS011;39850;43.324;21.916;2024-01-27T17:39:58;18.0;;;13.0;;
53939;SDS011;39850;43.324;21.916;2024-01-27T17:44:35;18.0;;;13.0;;
53939;SDS011;39850;43.324;21.916;2024-01-27T17:49:12;16.0;;;12.0;;
53939;SDS011;39850;43.324;21.916;2024-01-27T17:53:49;16.0;;;12.0;;
53939;SDS011;39850;43.324;21.916;2024-01-27T18:30:40;15.0;;;12.0;;
53939;SDS011;39850;43.324;21.916;2024-01-27T18:35:17;15.0;;;12.0;;
53939;SDS011;39850;43.324;21.916;2024-01-27T18:39:53;14.0;;;12.0;;
53939;SDS011;39850;43.324;21.916;2024-01-27T18:44:30;14.0;;;12.0;;
53939;SDS011;39850;43.324;21.916;2024-01-27T18:49:06;15.0;;;11.0;;
53939;SDS011;39850;43.324;21.916;2024-01-27T18:53:43;15.0;;;11.0;;
53939;SDS011;39850;43.324;21.916;2024-01-27T18:58:19;14.0;;;11.0;;
53939;SDS011;39850;43.324;21.916;2024-01-27T19:02:55;14.0;;;11.0;;
53939;SDS011;39850;43.324;21.916;2024-01-27T19:07:31;14.0;;;11.0;;
53939;SDS011;39850;43.324;21.916;2024-01-27T19:12:07;15.0;;;11.0;;
53939;SDS011;39850;43.324;21.916;2024-01-27T19:16:45;15.0;;;11.0;;
53939;SDS011;39850;43.324;21.916;2024-01-27T19:48:59;13.0;;;10.0;;
53939;SDS011;39850;43.324;21.916;2024-01-27T19:53:35;13.0;;;10.0;;
53939;SDS011;39850;43.324;21.916;2024-01-27T19:58:11;12.0;;;10.0;;
53939;SDS011;39850;43.324;21.916;2024-01-27T20:02:48;12.0;;;10.0;;
53939;SDS011;39850;43.324;21.916;2024-01-27T20:07:24;12.0;;;10.0;;
53939;SDS011;39850;43.324;21.916;2024-01-27T20:12:00;13.0;;;10.0;;
53939;SDS011;39850;43.324;21.916;2024-01-27T20:16:36;13.0;;;10.0;;
53939;SDS011;39850;43.324;21.916;2024-01-27T20:21:13;14.0;;;11.0;;
53939;SDS011;39850;43.324;21.916;2024-01-27T20:25:50;14.0;;;11.0;;
53939;SDS011;39850;43.324;21.916;2024-01-27T20:30:26;17.0;;;13.0;;
53939;SDS011;39850;43.324;21.916;2024-01-27T20:35:05;17.0;;;13.0;;
53939;SDS011;39850;43.324;21.916;2024-01-27T21:11:56;12.0;;;9.0;;
53939;SDS011;39850;43.324;21.916;2024-01-27T21:16:33;12.0;;;9.0;;
53939;SDS011;39850;43.324;21.916;2024-01-27T21:21:09;14.0;;;10.0;;
53939;SDS011;39850;43.324;21.916;2024-01-27T21:25:45;14.0;;;10.0;;
53939;SDS011;39850;43.324;21.916;2024-01-27T21:30:21;14.0;;;10.0;;
53939;SDS011;39850;43.324;21.916;2024-01-27T21:34:58;14.0;;;10.0;;
53939;SDS011;39850;43.324;21.916;2024-01-27T21:39:34;15.0;;;11.0;;
53939;SDS011;39850;43.324;21.916;2024-01-27T21:44:10;15.0;;;11.0;;
53939;SDS011;39850;43.324;21.916;2024-01-27T21:48:46;14.0;;;10.0;;
53939;SDS011;39850;43.324;21.916;2024-01-27T21:53:22;14.0;;;10.0;;
53939;SDS011;39850;43.324;21.916;2024-01-27T21:57:59;14.0;;;10.0;;
53939;SDS011;39850;43.324;21.916;2024-01-27T22:30:12;12.0;;;9.0;;
53939;SDS011;39850;43.324;21.916;2024-01-27T22:34:49;12.0;;;9.0;;
53939;SDS011;39850;43.324;21.916;2024-01-27T22:39:25;13.0;;;10.0;;
53939;SDS011;39850;43.324;21.916;2024-01-27T22:44:02;13.0;;;10.0;;
53939;SDS011;39850;43.324;21.916;2024-01-27T22:48:38;14.0;;;10.0;;
53939;SDS011;39850;43.324;21.916;2024-01-27T22:53:15;14.0;;;10.0;;
53939;SDS011;39850;43.324;21.916;2024-01-27T22:57:51;14.0;;;10.0;;
53939;SDS011;39850;43.324;21.916;2024-01-27T23:02:27;14.0;;;10.0;;
53939;SDS011;39850;43.324;21.916;2024-01-27T23:07:04;14.0;;;10.0;;
53939;SDS011;39850;43.324;21.916;2024-01-27T23:11:40;14.0;;;10.0;;
53939;SDS011;39850;43.324;21.916;2024-01-27T23:16:17;14.0;;;10.0;;
53939;SDS011;39850;43.324;21.916;2024-01-27T23:53:07;13.0;;;9.0;;
53939;SDS011;39850;43.324;21.916;2024-01-27T23:57:43;13.0;;;9.0;;
